Time;durP1;ratioP1;P1;durP2;ratioP2;P2;SDS_P1;SDS_P2;PMS_P1;PMS_P2;Temp;Humidity;BMP_temperature;BMP_pressure;BME280_temperature;BME280_humidity;BME280_pressure;Samples;Min_cycle;Max_cycle;Signal;HPM_P1;HPM_P2
2022/10/21 00:02:41;;;;;;;18.52;8.15;;;;;;;;;;8334178;28;20110;-85
2022/10/21 00:06:45;;;;;;;17.02;8.30;;;;;;;;;;8333868;28;20393;-85
2022/10/21 00:10:51;;;;;;;20.13;7.88;;;;;;;;;;8334032;28;20041;-86
2022/10/21 00:14:54;;;;;;;25.27;8.45;;;;;;;;;;8333746;28;20064;-86
2022/10/21 00:18:58;;;;;;;18.20;8.10;;;;;;;;;;8333542;28;20033;-86
2022/10/21 00:23:00;;;;;;;23.33;9.27;;;;;;;;;;8333519;28;20045;-86
2022/10/21 00:27:02;;;;;;;21.65;8.88;;;;;;;;;;8333275;28;20126;-85
2022/10/21 00:31:07;;;;;;;18.40;7.93;;;;;;;;;;8333390;28;20041;-83
2022/10/21 00:35:11;;;;;;;20.00;7.80;;;;;;;;;;8347582;28;20440;-85
2022/10/21 00:39:13;;;;;;;18.75;7.93;;;;;;;;;;8332963;28;20049;-86
2022/10/21 00:43:16;;;;;;;20.70;9.07;;;;;;;;;;8346257;28;20045;-85
2022/10/21 00:47:22;;;;;;;14.40;6.65;;;;;;;;;;8333322;28;20124;-85
2022/10/21 00:51:26;;;;;;;18.10;6.28;;;;;;;;;;8332682;28;20045;-86
2022/10/21 00:55:31;;;;;;;17.73;5.97;;;;;;;;;;8332700;28;20484;-86
2022/10/21 00:59:36;;;;;;;15.77;6.78;;;;;;;;;;8332324;28;20053;-85
2022/10/21 01:03:39;;;;;;;17.73;7.63;;;;;;;;;;8332716;28;20068;-85
2022/10/21 01:07:43;;;;;;;12.98;5.88;;;;;;;;;;8332315;28;20052;-85
2022/10/21 01:11:47;;;;;;;15.70;7.38;;;;;;;;;;8331992;28;20416;-86
2022/10/21 01:15:55;;;;;;;15.80;7.13;;;;;;;;;;8332072;28;20045;-85
2022/10/21 01:20:19;;;;;;;18.35;7.35;;;;;;;;;;8330970;28;20507;-85
2022/10/21 01:24:47;;;;;;;15.80;5.97;;;;;;;;;;8331579;28;20044;-85
2022/10/21 01:29:04;;;;;;;14.35;6.38;;;;;;;;;;8331880;28;20128;-85
2022/10/21 01:33:22;;;;;;;13.90;6.40;;;;;;;;;;8337301;28;20045;-85
2022/10/21 01:37:29;;;;;;;10.65;4.90;;;;;;;;;;8337225;28;20187;-85
2022/10/21 01:41:38;;;;;;;16.95;5.72;;;;;;;;;;8331236;28;20060;-85
2022/10/21 01:45:46;;;;;;;14.73;5.95;;;;;;;;;;8330881;28;20145;-85
2022/10/21 01:49:54;;;;;;;12.63;4.90;;;;;;;;;;8330730;28;20041;-86
2022/10/21 01:54:03;;;;;;;11.98;5.55;;;;;;;;;;8524056;23;20064;-85
2022/10/21 01:58:10;;;;;;;12.38;5.82;;;;;;;;;;8350029;28;20046;-87
2022/10/21 02:02:16;;;;;;;11.30;5.15;;;;;;;;;;8358973;28;20438;-86
2022/10/21 02:06:19;;;;;;;12.02;5.57;;;;;;;;;;8357164;28;20040;-85
2022/10/21 02:10:25;;;;;;;12.88;5.45;;;;;;;;;;8370783;28;20043;-86
2022/10/21 02:14:32;;;;;;;13.50;5.80;;;;;;;;;;8350848;28;20040;-85
2022/10/21 02:18:35;;;;;;;15.30;6.57;;;;;;;;;;8358319;28;20048;-85
2022/10/21 02:22:40;;;;;;;49.08;23.50;;;;;;;;;;8360173;28;20048;-88
2022/10/21 02:26:42;;;;;;;39.42;20.42;;;;;;;;;;8354816;28;20478;-86
2022/10/21 02:30:54;;;;;;;39.17;21.92;;;;;;;;;;8356021;28;20484;-85
2022/10/21 02:35:17;;;;;;;37.58;20.00;;;;;;;;;;8353657;28;20052;-85
2022/10/21 02:39:27;;;;;;;14.95;8.38;;;;;;;;;;8354913;28;20472;-87
2022/10/21 02:43:33;;;;;;;13.48;6.38;;;;;;;;;;8359693;28;20044;-86
2022/10/21 02:47:36;;;;;;;11.82;6.50;;;;;;;;;;8348669;28;20045;-87
2022/10/21 02:51:40;;;;;;;16.08;7.75;;;;;;;;;;8364889;28;20048;-85
2022/10/21 02:55:44;;;;;;;20.17;8.52;;;;;;;;;;8364789;28;541481;-84
2022/10/21 02:59:46;;;;;;;14.75;7.22;;;;;;;;;;8390410;28;20120;-85
2022/10/21 03:03:48;;;;;;;9.82;6.30;;;;;;;;;;8371012;28;20134;-85
2022/10/21 03:07:50;;;;;;;11.90;5.72;;;;;;;;;;8395243;28;20132;-86
2022/10/21 03:11:54;;;;;;;10.00;5.50;;;;;;;;;;8381092;28;20041;-86
2022/10/21 03:15:57;;;;;;;12.23;5.40;;;;;;;;;;8395422;28;20044;-85
2022/10/21 03:19:59;;;;;;;10.07;5.25;;;;;;;;;;8394971;28;20123;-86
2022/10/21 03:24:02;;;;;;;9.90;5.45;;;;;;;;;;8381141;28;20452;-87
2022/10/21 03:28:06;;;;;;;12.00;6.18;;;;;;;;;;8368539;28;20049;-84
2022/10/21 03:32:08;;;;;;;12.52;6.05;;;;;;;;;;8366970;28;20063;-84
2022/10/21 03:36:10;;;;;;;10.90;5.65;;;;;;;;;;8355214;28;20507;-85
2022/10/21 03:40:13;;;;;;;11.00;5.57;;;;;;;;;;8346448;28;20052;-87
2022/10/21 03:44:16;;;;;;;27.75;13.80;;;;;;;;;;8361030;28;20041;-86
2022/10/21 03:48:19;;;;;;;19.30;8.98;;;;;;;;;;8361432;28;20116;-88
2022/10/21 03:52:21;;;;;;;17.15;7.78;;;;;;;;;;8358571;28;20033;-87
2022/10/21 03:56:24;;;;;;;22.20;9.63;;;;;;;;;;8364177;28;20109;-88
2022/10/21 04:00:27;;;;;;;17.55;8.63;;;;;;;;;;8362933;28;20041;-85
2022/10/21 04:04:30;;;;;;;14.70;6.03;;;;;;;;;;8383372;28;20131;-86
2022/10/21 04:08:32;;;;;;;17.77;8.77;;;;;;;;;;8392044;28;20060;-84
2022/10/21 04:12:35;;;;;;;16.95;7.85;;;;;;;;;;8385771;28;20128;-84
2022/10/21 04:16:39;;;;;;;18.73;9.32;;;;;;;;;;8399926;28;20048;-85
2022/10/21 04:20:41;;;;;;;45.15;15.15;;;;;;;;;;8395929;28;20094;-87
2022/10/21 04:24:44;;;;;;;28.73;13.13;;;;;;;;;;8389856;28;20049;-85
2022/10/21 04:28:46;;;;;;;19.83;9.27;;;;;;;;;;8399774;28;20488;-86
2022/10/21 04:32:50;;;;;;;19.40;10.85;;;;;;;;;;8399339;28;20099;-85
2022/10/21 04:36:52;;;;;;;22.00;12.02;;;;;;;;;;8399349;28;20098;-86
2022/10/21 04:40:56;;;;;;;19.02;9.43;;;;;;;;;;8398981;28;20044;-87
2022/10/21 04:44:59;;;;;;;25.27;12.70;;;;;;;;;;8364652;28;20049;-86
2022/10/21 04:49:03;;;;;;;19.48;9.45;;;;;;;;;;8360317;28;20037;-86
2022/10/21 04:53:05;;;;;;;22.15;14.52;;;;;;;;;;8386511;28;20052;-86
2022/10/21 04:57:08;;;;;;;19.67;10.35;;;;;;;;;;8398776;28;20056;-86
2022/10/21 05:01:10;;;;;;;25.45;11.02;;;;;;;;;;8382122;28;20072;-87
2022/10/21 05:05:14;;;;;;;20.13;8.95;;;;;;;;;;8369535;28;20040;-86
2022/10/21 05:09:16;;;;;;;19.20;9.80;;;;;;;;;;8368274;28;20079;-85
2022/10/21 05:13:19;;;;;;;22.98;13.77;;;;;;;;;;8369453;28;20443;-87
2022/10/21 05:17:21;;;;;;;29.58;13.88;;;;;;;;;;8352209;28;20053;-87
2022/10/21 05:21:25;;;;;;;21.45;10.40;;;;;;;;;;8355886;28;20507;-87
2022/10/21 05:25:28;;;;;;;26.52;12.90;;;;;;;;;;8359810;28;20051;-87
2022/10/21 05:29:30;;;;;;;31.40;12.40;;;;;;;;;;8354631;28;20053;-85
2022/10/21 05:33:32;;;;;;;23.92;13.07;;;;;;;;;;8392648;28;20555;-85
2022/10/21 05:37:36;;;;;;;49.03;25.25;;;;;;;;;;8397304;28;20040;-86
2022/10/21 05:41:39;;;;;;;51.92;30.50;;;;;;;;;;8374995;28;20091;-88
2022/10/21 05:45:41;;;;;;;21.42;11.10;;;;;;;;;;8351168;28;20041;-86
2022/10/21 05:49:43;;;;;;;77.28;38.45;;;;;;;;;;8361877;28;20064;-84
2022/10/21 05:53:47;;;;;;;42.17;21.50;;;;;;;;;;8364736;28;20053;-88
2022/10/21 05:57:50;;;;;;;46.85;24.35;;;;;;;;;;8384144;28;20079;-87
2022/10/21 06:01:52;;;;;;;30.92;19.38;;;;;;;;;;8375654;28;20127;-84
2022/10/21 06:05:55;;;;;;;37.08;24.48;;;;;;;;;;8391564;28;20063;-86
2022/10/21 06:09:58;;;;;;;67.55;40.95;;;;;;;;;;8396600;28;20052;-87
2022/10/21 06:14:01;;;;;;;64.07;36.08;;;;;;;;;;8394710;28;20068;-85
2022/10/21 06:18:03;;;;;;;46.15;33.15;;;;;;;;;;8395344;28;20479;-85
2022/10/21 06:22:06;;;;;;;36.35;26.63;;;;;;;;;;8381630;28;20464;-85
2022/10/21 06:26:12;;;;;;;31.25;23.42;;;;;;;;;;8382924;28;20042;-85
2022/10/21 06:30:14;;;;;;;24.65;14.77;;;;;;;;;;8381591;28;20045;-84
2022/10/21 06:34:17;;;;;;;24.85;19.63;;;;;;;;;;8395811;28;20040;-85
2022/10/21 06:38:19;;;;;;;26.98;15.68;;;;;;;;;;8395806;28;20036;-85
2022/10/21 06:42:24;;;;;;;22.65;14.70;;;;;;;;;;8396275;28;20055;-87
2022/10/21 06:46:26;;;;;;;26.33;11.77;;;;;;;;;;8396282;28;20529;-86
2022/10/21 06:50:29;;;;;;;24.38;12.20;;;;;;;;;;8395721;28;20051;-87
2022/10/21 06:54:31;;;;;;;26.35;15.60;;;;;;;;;;8367251;28;20136;-87
2022/10/21 06:58:36;;;;;;;35.28;23.40;;;;;;;;;;8395638;28;20040;-85
2022/10/21 07:02:39;;;;;;;32.63;19.52;;;;;;;;;;8395350;28;20486;-86
2022/10/21 07:06:42;;;;;;;21.30;12.02;;;;;;;;;;8395097;28;20473;-87
2022/10/21 07:10:44;;;;;;;28.20;20.25;;;;;;;;;;8395117;28;20098;-87
2022/10/21 07:14:48;;;;;;;36.38;32.40;;;;;;;;;;8395086;28;20048;-87
2022/10/21 07:18:51;;;;;;;23.48;18.30;;;;;;;;;;8401205;28;20044;-87
2022/10/21 07:22:54;;;;;;;31.45;23.33;;;;;;;;;;8387328;28;20067;-86
2022/10/21 07:26:56;;;;;;;22.45;16.08;;;;;;;;;;8401633;28;20071;-86
2022/10/21 07:31:00;;;;;;;34.28;21.67;;;;;;;;;;8401284;28;20412;-88
2022/10/21 07:35:03;;;;;;;19.08;10.68;;;;;;;;;;8401287;28;20051;-88
2022/10/21 07:39:08;;;;;;;16.05;10.70;;;;;;;;;;8401091;28;20052;-88
2022/10/21 07:43:11;;;;;;;26.95;19.60;;;;;;;;;;8400966;28;20040;-88
2022/10/21 07:47:15;;;;;;;29.40;15.95;;;;;;;;;;8401047;28;20046;-88
2022/10/21 07:51:20;;;;;;;18.35;11.93;;;;;;;;;;8372602;28;20124;-88
2022/10/21 07:55:22;;;;;;;23.23;16.90;;;;;;;;;;8400512;28;20059;-88
2022/10/21 07:59:25;;;;;;;27.90;20.83;;;;;;;;;;8399468;28;20519;-88
2022/10/21 08:03:29;;;;;;;34.08;30.55;;;;;;;;;;8373430;28;20049;-87
2022/10/21 08:07:31;;;;;;;35.22;29.45;;;;;;;;;;8400359;28;20751;-87
2022/10/21 08:11:37;;;;;;;30.02;25.95;;;;;;;;;;8371702;28;20040;-88
2022/10/21 08:15:42;;;;;;;19.33;11.18;;;;;;;;;;8400175;28;20055;-87
2022/10/21 08:19:47;;;;;;;18.73;13.65;;;;;;;;;;8400055;28;20040;-88
2022/10/21 08:23:49;;;;;;;40.65;32.47;;;;;;;;;;8381450;28;20488;-88
2022/10/21 08:27:52;;;;;;;26.58;15.73;;;;;;;;;;8399491;28;20051;-86
2022/10/21 08:31:54;;;;;;;27.48;15.45;;;;;;;;;;8399681;28;20423;-88
2022/10/21 08:35:58;;;;;;;17.00;8.73;;;;;;;;;;8399480;28;20485;-87
2022/10/21 08:40:00;;;;;;;20.80;13.02;;;;;;;;;;8399227;28;20056;-88
2022/10/21 08:44:07;;;;;;;19.55;12.88;;;;;;;;;;8398993;28;20041;-88
2022/10/21 08:48:13;;;;;;;17.50;11.40;;;;;;;;;;8370780;28;20041;-87
2022/10/21 08:52:21;;;;;;;13.25;7.65;;;;;;;;;;8391533;28;20476;-88
2022/10/21 08:56:24;;;;;;;22.02;11.35;;;;;;;;;;8358349;28;20123;-88
2022/10/21 09:00:32;;;;;;;13.52;8.98;;;;;;;;;;8345322;28;20119;-87
2022/10/21 09:04:44;;;;;;;16.30;10.60;;;;;;;;;;8365520;28;20048;-87
2022/10/21 09:09:13;;;;;;;13.85;8.27;;;;;;;;;;8365487;28;20041;-88
2022/10/21 09:13:23;;;;;;;10.57;5.88;;;;;;;;;;8365029;28;20087;-87
2022/10/21 09:17:41;;;;;;;9.35;5.65;;;;;;;;;;8364812;28;20037;-88
2022/10/21 09:21:56;;;;;;;11.25;6.40;;;;;;;;;;8344616;28;20081;-88
2022/10/21 09:26:03;;;;;;;16.65;7.18;;;;;;;;;;8351006;28;20045;-88
2022/10/21 09:30:09;;;;;;;14.75;7.80;;;;;;;;;;8364513;28;20048;-88
2022/10/21 09:34:32;;;;;;;14.30;8.35;;;;;;;;;;8364356;28;20049;-87
2022/10/21 09:38:42;;;;;;;22.40;10.18;;;;;;;;;;8335672;28;20049;-88
2022/10/21 09:42:49;;;;;;;31.35;20.23;;;;;;;;;;8336326;28;20484;-87
2022/10/21 09:46:54;;;;;;;60.75;26.65;;;;;;;;;;8364065;28;20467;-87
2022/10/21 09:51:01;;;;;;;26.67;11.38;;;;;;;;;;8363706;28;20567;-88
2022/10/21 09:55:04;;;;;;;44.08;23.80;;;;;;;;;;8386120;28;20119;-88
2022/10/21 09:59:10;;;;;;;19.05;12.57;;;;;;;;;;8396937;28;20040;-87
2022/10/21 10:03:13;;;;;;;28.23;11.75;;;;;;;;;;8396593;28;20469;-87
2022/10/21 10:07:26;;;;;;;23.95;13.82;;;;;;;;;;8396560;28;20040;-88
2022/10/21 10:11:28;;;;;;;37.55;18.92;;;;;;;;;;8396263;28;20048;-88
2022/10/21 10:15:37;;;;;;;50.53;26.23;;;;;;;;;;8396261;28;20051;-88
2022/10/21 10:19:39;;;;;;;26.02;13.82;;;;;;;;;;8396638;28;20070;-88
2022/10/21 10:23:48;;;;;;;24.08;10.98;;;;;;;;;;8377128;28;20044;-87
2022/10/21 10:27:53;;;;;;;12.95;5.95;;;;;;;;;;8396051;28;20048;-87
2022/10/21 10:32:00;;;;;;;18.25;7.05;;;;;;;;;;8371463;28;20050;-87
2022/10/21 10:36:05;;;;;;;13.65;7.40;;;;;;;;;;8385801;28;20057;-87
2022/10/21 10:40:10;;;;;;;36.55;28.67;;;;;;;;;;8376948;28;20053;-87
2022/10/21 10:44:27;;;;;;;16.17;7.82;;;;;;;;;;8395437;28;20072;-87
2022/10/21 10:48:37;;;;;;;36.08;21.23;;;;;;;;;;8379359;28;20476;-88
2022/10/21 10:52:39;;;;;;;21.52;10.43;;;;;;;;;;8394385;28;20091;-87
2022/10/21 10:56:47;;;;;;;17.38;9.05;;;;;;;;;;8395540;28;20048;-87
2022/10/21 11:00:55;;;;;;;20.73;12.55;;;;;;;;;;8395382;28;20055;-87
2022/10/21 11:05:22;;;;;;;40.25;23.05;;;;;;;;;;8381376;28;20041;-87
2022/10/21 11:09:25;;;;;;;36.60;18.90;;;;;;;;;;8380178;28;20162;-87
2022/10/21 11:13:28;;;;;;;21.05;12.65;;;;;;;;;;8395325;28;20041;-88
2022/10/21 11:17:39;;;;;;;36.55;16.48;;;;;;;;;;8395290;28;20644;-88
2022/10/21 11:21:51;;;;;;;24.30;13.43;;;;;;;;;;8382880;28;20045;-87
2022/10/21 11:26:00;;;;;;;33.60;19.10;;;;;;;;;;8366606;28;20046;-87
2022/10/21 11:30:09;;;;;;;34.15;16.38;;;;;;;;;;8370185;28;20041;-88
2022/10/21 11:34:20;;;;;;;19.98;8.07;;;;;;;;;;8361635;28;20041;-88
2022/10/21 11:38:50;;;;;;;17.45;7.80;;;;;;;;;;8384955;28;20111;-88
2022/10/21 11:42:54;;;;;;;50.45;26.15;;;;;;;;;;8369725;28;20048;-87
2022/10/21 11:47:06;;;;;;;43.97;24.48;;;;;;;;;;8394767;28;20411;-87
2022/10/21 11:51:19;;;;;;;13.35;7.70;;;;;;;;;;8389732;28;20044;-87
2022/10/21 11:55:33;;;;;;;14.82;9.20;;;;;;;;;;8374802;28;20508;-87
2022/10/21 11:59:48;;;;;;;16.98;7.20;;;;;;;;;;8394400;28;20040;-86
2022/10/21 12:04:03;;;;;;;22.05;9.82;;;;;;;;;;8384186;28;20052;-87
2022/10/21 12:08:13;;;;;;;16.67;9.40;;;;;;;;;;8382851;28;20044;-88
2022/10/21 12:12:22;;;;;;;9.85;5.38;;;;;;;;;;8391635;28;20474;-87
2022/10/21 12:16:27;;;;;;;20.40;7.55;;;;;;;;;;8367068;28;20049;-88
2022/10/21 12:20:30;;;;;;;16.80;6.75;;;;;;;;;;8366473;28;20045;-86
2022/10/21 12:24:43;;;;;;;14.35;6.88;;;;;;;;;;8388089;28;20048;-88
2022/10/21 12:28:54;;;;;;;20.40;7.03;;;;;;;;;;8400020;28;20480;-88
2022/10/21 12:33:14;;;;;;;14.75;7.25;;;;;;;;;;8378916;28;20575;-87
2022/10/21 12:37:43;;;;;;;9.93;5.53;;;;;;;;;;8366185;28;20128;-88
2022/10/21 12:41:46;;;;;;;11.40;5.47;;;;;;;;;;8366087;28;20045;-89
2022/10/21 12:46:04;;;;;;;19.52;7.13;;;;;;;;;;8347957;28;20417;-88
2022/10/21 12:50:22;;;;;;;9.00;5.28;;;;;;;;;;8352922;28;20037;-88
2022/10/21 12:54:28;;;;;;;15.13;5.60;;;;;;;;;;8381127;28;20588;-87
2022/10/21 12:58:36;;;;;;;20.55;6.85;;;;;;;;;;8398145;28;20488;-87
2022/10/21 13:02:58;;;;;;;15.48;6.35;;;;;;;;;;8398913;28;20060;-89
2022/10/21 13:07:02;;;;;;;12.70;6.30;;;;;;;;;;8398646;28;20044;-88
2022/10/21 13:11:22;;;;;;;12.48;6.50;;;;;;;;;;8398312;28;20054;-87
2022/10/21 13:15:44;;;;;;;13.30;6.75;;;;;;;;;;8397324;28;20115;-87
2022/10/21 13:19:49;;;;;;;9.10;6.10;;;;;;;;;;8383653;28;20055;-88
2022/10/21 13:23:53;;;;;;;8.63;5.72;;;;;;;;;;8383692;28;20083;-88
2022/10/21 13:28:05;;;;;;;12.73;6.78;;;;;;;;;;8397771;28;20098;-88
2022/10/21 13:32:26;;;;;;;13.18;6.60;;;;;;;;;;8397733;28;20059;-87
2022/10/21 13:36:38;;;;;;;11.30;6.53;;;;;;;;;;8364936;28;20061;-88
2022/10/21 13:40:47;;;;;;;14.17;7.33;;;;;;;;;;8364360;28;20045;-87
2022/10/21 13:44:52;;;;;;;12.93;8.07;;;;;;;;;;8346697;28;20079;-87
2022/10/21 13:48:58;;;;;;;13.80;6.85;;;;;;;;;;8350182;28;20045;-87
2022/10/21 13:53:18;;;;;;;15.77;8.82;;;;;;;;;;8348040;28;20051;-88
2022/10/21 13:57:20;;;;;;;22.60;11.77;;;;;;;;;;8396912;28;20476;-88
2022/10/21 14:01:25;;;;;;;12.75;7.30;;;;;;;;;;8373041;28;20099;-88
2022/10/21 14:05:30;;;;;;;12.82;7.88;;;;;;;;;;8368404;28;20458;-88
2022/10/21 14:09:38;;;;;;;11.65;6.60;;;;;;;;;;8391409;28;20048;-89
2022/10/21 14:13:45;;;;;;;12.20;6.55;;;;;;;;;;8396033;28;20535;-86
2022/10/21 14:17:53;;;;;;;12.88;6.55;;;;;;;;;;8378433;28;20063;-88
2022/10/21 14:21:58;;;;;;;9.70;5.40;;;;;;;;;;8380600;28;20049;-87
2022/10/21 14:26:07;;;;;;;9.88;6.47;;;;;;;;;;8361628;28;20040;-87
2022/10/21 14:30:27;;;;;;;10.85;6.53;;;;;;;;;;8392048;28;20049;-87
2022/10/21 14:34:31;;;;;;;12.55;7.45;;;;;;;;;;8395765;28;20044;-88
2022/10/21 14:38:38;;;;;;;12.82;6.05;;;;;;;;;;8377324;28;20515;-87
2022/10/21 14:42:43;;;;;;;15.32;8.45;;;;;;;;;;8375010;28;20547;-87
2022/10/21 14:46:48;;;;;;;11.30;6.60;;;;;;;;;;8374460;28;20045;-87
2022/10/21 14:50:53;;;;;;;11.25;6.05;;;;;;;;;;8384570;28;20052;-87
2022/10/21 14:54:58;;;;;;;10.25;6.25;;;;;;;;;;8368128;28;20398;-87
2022/10/21 14:59:23;;;;;;;11.35;5.97;;;;;;;;;;8344267;28;20045;-87
2022/10/21 15:03:42;;;;;;;11.18;6.80;;;;;;;;;;8355148;28;20037;-86
2022/10/21 15:07:44;;;;;;;15.38;7.35;;;;;;;;;;8360349;28;20137;-87
2022/10/21 15:11:47;;;;;;;13.02;7.00;;;;;;;;;;8360032;28;20048;-87
2022/10/21 15:15:53;;;;;;;12.60;7.10;;;;;;;;;;8353686;28;20064;-88
2022/10/21 15:19:55;;;;;;;11.50;6.65;;;;;;;;;;8356132;28;20091;-89
2022/10/21 15:23:59;;;;;;;13.85;7.13;;;;;;;;;;8359647;28;20127;-88
2022/10/21 15:28:10;;;;;;;12.43;7.00;;;;;;;;;;8352643;28;20118;-88
2022/10/21 15:32:18;;;;;;;13.17;7.37;;;;;;;;;;8359560;28;20045;-89
2022/10/21 15:36:21;;;;;;;12.32;7.10;;;;;;;;;;8359449;28;20037;-87
2022/10/21 15:40:23;;;;;;;14.55;7.53;;;;;;;;;;8352920;28;20049;-88
2022/10/21 15:44:29;;;;;;;16.65;6.75;;;;;;;;;;8350373;28;20110;-88
2022/10/21 15:48:33;;;;;;;11.25;6.57;;;;;;;;;;8355591;28;20041;-86
2022/10/21 15:52:35;;;;;;;13.50;6.95;;;;;;;;;;8353943;28;20052;-88
2022/10/21 15:56:38;;;;;;;14.07;7.50;;;;;;;;;;8359598;28;20037;-88
2022/10/21 16:00:41;;;;;;;13.07;7.18;;;;;;;;;;8357433;28;20124;-89
2022/10/21 16:04:46;;;;;;;11.90;6.13;;;;;;;;;;8351873;28;20045;-87
2022/10/21 16:08:50;;;;;;;12.27;6.47;;;;;;;;;;8352472;28;20479;-88
2022/10/21 16:12:54;;;;;;;9.13;6.45;;;;;;;;;;8341311;28;20140;-87
2022/10/21 16:16:57;;;;;;;10.70;6.53;;;;;;;;;;8348339;28;20068;-88
2022/10/21 16:21:01;;;;;;;12.75;7.00;;;;;;;;;;8337725;28;20459;-87
2022/10/21 16:25:04;;;;;;;14.85;6.53;;;;;;;;;;8349681;28;20044;-87
2022/10/21 16:29:12;;;;;;;13.10;6.78;;;;;;;;;;8353680;28;20376;-89
2022/10/21 16:33:14;;;;;;;13.52;6.53;;;;;;;;;;8358365;28;20053;-88
2022/10/21 16:37:25;;;;;;;12.05;6.60;;;;;;;;;;8354615;28;20037;-88
2022/10/21 16:41:28;;;;;;;12.50;7.03;;;;;;;;;;8343153;28;20036;-87
2022/10/21 16:45:32;;;;;;;15.85;7.20;;;;;;;;;;8355002;28;20357;-89
2022/10/21 16:49:35;;;;;;;13.55;7.65;;;;;;;;;;8348132;28;20106;-87
2022/10/21 16:53:40;;;;;;;11.80;7.05;;;;;;;;;;8341391;28;20064;-87
2022/10/21 16:57:43;;;;;;;14.32;7.95;;;;;;;;;;8339911;28;20615;-88
2022/10/21 17:01:46;;;;;;;20.67;9.95;;;;;;;;;;8343023;28;20044;-87
2022/10/21 17:05:51;;;;;;;14.05;7.60;;;;;;;;;;8339901;28;20679;-88
2022/10/21 17:09:55;;;;;;;14.98;8.18;;;;;;;;;;8348287;28;20066;-88
2022/10/21 17:13:58;;;;;;;18.55;12.02;;;;;;;;;;8350437;28;20590;-88
2022/10/21 17:18:02;;;;;;;18.10;11.25;;;;;;;;;;8346618;28;20076;-88
2022/10/21 17:22:05;;;;;;;15.48;7.75;;;;;;;;;;8349727;28;20056;-88
2022/10/21 17:26:09;;;;;;;15.10;8.25;;;;;;;;;;8356180;28;20759;-88
2022/10/21 17:30:12;;;;;;;18.63;9.90;;;;;;;;;;8351561;28;20130;-87
2022/10/21 17:34:26;;;;;;;20.05;9.75;;;;;;;;;;8349253;28;20060;-88
2022/10/21 17:38:28;;;;;;;18.70;10.00;;;;;;;;;;8333727;28;20519;-87
2022/10/21 17:42:32;;;;;;;16.23;9.10;;;;;;;;;;8343482;28;20053;-88
2022/10/21 17:46:35;;;;;;;21.20;10.05;;;;;;;;;;8348741;28;20048;-87
2022/10/21 17:50:38;;;;;;;20.00;10.23;;;;;;;;;;8342415;28;20129;-88
2022/10/21 17:54:43;;;;;;;22.25;10.52;;;;;;;;;;8351905;28;20065;-88
2022/10/21 17:58:53;;;;;;;19.02;10.07;;;;;;;;;;8349601;28;20101;-88
2022/10/21 18:02:57;;;;;;;19.58;9.73;;;;;;;;;;8349468;28;20047;-88
2022/10/21 18:07:04;;;;;;;18.63;9.52;;;;;;;;;;8351568;28;20088;-88
2022/10/21 18:11:09;;;;;;;20.00;10.20;;;;;;;;;;8327089;28;20049;-88
2022/10/21 18:15:18;;;;;;;19.70;10.60;;;;;;;;;;8347610;28;20111;-87
2022/10/21 18:19:21;;;;;;;22.95;10.23;;;;;;;;;;8348724;28;20052;-87
2022/10/21 18:23:31;;;;;;;19.73;10.02;;;;;;;;;;8352505;28;20071;-88
2022/10/21 18:27:47;;;;;;;18.38;8.77;;;;;;;;;;8357500;28;20117;-89
2022/10/21 18:32:03;;;;;;;19.65;8.98;;;;;;;;;;8358177;28;20052;-88
2022/10/21 18:36:28;;;;;;;19.13;10.32;;;;;;;;;;8387930;28;20040;-87
2022/10/21 18:40:47;;;;;;;20.85;10.23;;;;;;;;;;8360729;28;20048;-88
2022/10/21 18:44:54;;;;;;;20.70;9.95;;;;;;;;;;8353649;28;20127;-88
2022/10/21 18:49:02;;;;;;;18.23;10.43;;;;;;;;;;8352779;28;20484;-88
2022/10/21 18:53:05;;;;;;;20.00;10.02;;;;;;;;;;8342639;28;20404;-88
2022/10/21 18:57:11;;;;;;;20.42;10.18;;;;;;;;;;8346301;28;20053;-87
2022/10/21 19:01:14;;;;;;;20.95;11.20;;;;;;;;;;8352523;28;20049;-88
2022/10/21 19:05:19;;;;;;;26.15;12.35;;;;;;;;;;8346451;28;20046;-87
2022/10/21 19:09:25;;;;;;;24.48;11.50;;;;;;;;;;8361403;28;20476;-87
2022/10/21 19:13:28;;;;;;;23.15;10.32;;;;;;;;;;8379421;28;20045;-87
2022/10/21 19:17:31;;;;;;;21.75;10.77;;;;;;;;;;8360539;28;20051;-86
2022/10/21 19:21:36;;;;;;;21.85;10.48;;;;;;;;;;8359533;28;20051;-85
2022/10/21 19:25:38;;;;;;;21.63;10.77;;;;;;;;;;8366474;28;20587;-85
2022/10/21 19:29:42;;;;;;;29.52;13.32;;;;;;;;;;8361491;28;20488;-87
2022/10/21 19:33:45;;;;;;;23.35;10.73;;;;;;;;;;8362420;28;20106;-86
2022/10/21 19:37:49;;;;;;;24.15;11.07;;;;;;;;;;8359512;28;20051;-86
2022/10/21 19:41:52;;;;;;;21.50;10.35;;;;;;;;;;8362273;28;20996;-86
2022/10/21 19:45:57;;;;;;;22.00;10.93;;;;;;;;;;8361143;28;20123;-86
2022/10/21 19:50:00;;;;;;;17.73;7.90;;;;;;;;;;8361947;28;20480;-86
2022/10/21 19:54:07;;;;;;;24.90;10.68;;;;;;;;;;8367199;28;20504;-86
2022/10/21 19:58:10;;;;;;;21.00;10.38;;;;;;;;;;8367804;28;20040;-85
2022/10/21 20:02:13;;;;;;;22.23;11.50;;;;;;;;;;8361443;28;20052;-85
2022/10/21 20:06:17;;;;;;;23.25;10.57;;;;;;;;;;8384489;28;20076;-86
2022/10/21 20:10:22;;;;;;;25.50;12.15;;;;;;;;;;8387433;28;20380;-86
2022/10/21 20:14:25;;;;;;;20.80;10.77;;;;;;;;;;8400375;28;20051;-86
2022/10/21 20:18:29;;;;;;;26.85;11.90;;;;;;;;;;8400059;28;20048;-86
2022/10/21 20:22:31;;;;;;;24.13;10.52;;;;;;;;;;8371096;28;20044;-86
2022/10/21 20:26:36;;;;;;;22.08;10.82;;;;;;;;;;8383582;28;20049;-86
2022/10/21 20:30:38;;;;;;;23.63;11.90;;;;;;;;;;8365768;28;20404;-87
2022/10/21 20:34:42;;;;;;;25.67;13.23;;;;;;;;;;8366567;28;20127;-86
2022/10/21 20:38:45;;;;;;;28.92;11.90;;;;;;;;;;8364412;28;20052;-85
2022/10/21 20:42:49;;;;;;;21.42;11.77;;;;;;;;;;8399352;28;20036;-86
2022/10/21 20:46:51;;;;;;;24.20;12.93;;;;;;;;;;8399433;28;20052;-85
2022/10/21 20:51:01;;;;;;;25.38;13.38;;;;;;;;;;8398525;28;20045;-86
2022/10/21 20:55:03;;;;;;;24.42;12.93;;;;;;;;;;8365988;28;20049;-86
2022/10/21 20:59:10;;;;;;;26.25;13.50;;;;;;;;;;8365587;28;20041;-86
2022/10/21 21:03:12;;;;;;;25.30;13.02;;;;;;;;;;8366332;28;20622;-86
2022/10/21 21:07:15;;;;;;;25.45;12.10;;;;;;;;;;8365575;28;20128;-86
2022/10/21 21:11:17;;;;;;;26.48;14.02;;;;;;;;;;8351388;28;20046;-86
2022/10/21 21:15:21;;;;;;;27.35;13.48;;;;;;;;;;8398313;28;20118;-86
2022/10/21 21:19:24;;;;;;;27.42;13.15;;;;;;;;;;8383904;28;20065;-86
2022/10/21 21:23:27;;;;;;;24.60;13.55;;;;;;;;;;8380645;28;20041;-86
2022/10/21 21:27:29;;;;;;;26.92;14.85;;;;;;;;;;8398123;28;20403;-86
2022/10/21 21:31:34;;;;;;;29.50;14.80;;;;;;;;;;8379124;28;20059;-86
2022/10/21 21:35:36;;;;;;;26.17;14.80;;;;;;;;;;8368886;28;20060;-86
2022/10/21 21:39:39;;;;;;;29.05;15.07;;;;;;;;;;8397562;28;20048;-85
2022/10/21 21:43:42;;;;;;;25.88;13.10;;;;;;;;;;8397701;28;20582;-85
2022/10/21 21:47:46;;;;;;;24.45;13.32;;;;;;;;;;8392345;28;20040;-86
2022/10/21 21:51:48;;;;;;;29.25;14.13;;;;;;;;;;8358812;28;20538;-85
2022/10/21 21:55:51;;;;;;;36.65;16.35;;;;;;;;;;8372061;28;20062;-85
2022/10/21 21:59:53;;;;;;;28.98;13.88;;;;;;;;;;8363739;28;20132;-86
2022/10/21 22:03:58;;;;;;;28.27;15.75;;;;;;;;;;8363347;28;20048;-85
2022/10/21 22:08:02;;;;;;;31.42;16.05;;;;;;;;;;8364684;28;20112;-86
2022/10/21 22:12:05;;;;;;;30.23;16.00;;;;;;;;;;8396481;28;20060;-85
2022/10/21 22:16:10;;;;;;;31.45;15.82;;;;;;;;;;8396431;28;20052;-87
2022/10/21 22:20:14;;;;;;;34.13;18.35;;;;;;;;;;8396215;28;20446;-85
2022/10/21 22:24:16;;;;;;;48.97;30.52;;;;;;;;;;8368266;28;20139;-85
2022/10/21 22:28:19;;;;;;;32.97;17.88;;;;;;;;;;8395989;28;20044;-85
2022/10/21 22:32:21;;;;;;;44.78;27.65;;;;;;;;;;8395952;28;20078;-86
2022/10/21 22:36:26;;;;;;;31.60;16.45;;;;;;;;;;8360985;28;20071;-86
2022/10/21 22:40:28;;;;;;;39.78;22.35;;;;;;;;;;8362537;28;20476;-86
2022/10/21 22:44:31;;;;;;;31.83;17.48;;;;;;;;;;8362293;28;20049;-85
2022/10/21 22:48:33;;;;;;;35.40;18.80;;;;;;;;;;8385457;28;20075;-86
2022/10/21 22:52:39;;;;;;;30.23;17.25;;;;;;;;;;8395314;28;20499;-86
2022/10/21 22:56:42;;;;;;;29.75;16.83;;;;;;;;;;8395730;28;20155;-86
2022/10/21 23:00:44;;;;;;;37.20;19.83;;;;;;;;;;8395409;28;20539;-86
2022/10/21 23:04:47;;;;;;;34.20;17.40;;;;;;;;;;8395122;28;20478;-85
2022/10/21 23:08:51;;;;;;;33.67;18.95;;;;;;;;;;8378008;28;20053;-85
2022/10/21 23:12:54;;;;;;;35.78;18.88;;;;;;;;;;8395518;28;20047;-87
2022/10/21 23:16:56;;;;;;;34.35;18.50;;;;;;;;;;8384888;28;20112;-86
2022/10/21 23:20:59;;;;;;;34.28;18.98;;;;;;;;;;8370890;28;20098;-86
2022/10/21 23:25:03;;;;;;;35.45;19.33;;;;;;;;;;8387278;28;20094;-85
2022/10/21 23:29:05;;;;;;;30.58;17.80;;;;;;;;;;8395073;28;20072;-85
2022/10/21 23:33:08;;;;;;;37.45;20.13;;;;;;;;;;8378797;28;20053;-85
2022/10/21 23:37:10;;;;;;;32.22;17.60;;;;;;;;;;8383743;28;20503;-85
2022/10/21 23:41:14;;;;;;;34.53;18.38;;;;;;;;;;8395245;28;20037;-85
2022/10/21 23:45:17;;;;;;;32.58;18.10;;;;;;;;;;8394425;28;20051;-85
2022/10/21 23:49:20;;;;;;;34.53;18.40;;;;;;;;;;8394568;28;20553;-85
2022/10/21 23:53:22;;;;;;;32.55;17.25;;;;;;;;;;8394539;28;20044;-86
2022/10/21 23:57:26;;;;;;;36.65;18.40;;;;;;;;;;8394985;28;20040;-85
